createdAt,value
2023-01-10T00:00:42.938Z,15.02
2023-01-10T00:03:10.816Z,15.02
2023-01-10T00:05:38.230Z,15.00
2023-01-10T00:08:06.241Z,15.01
2023-01-10T00:10:33.608Z,15.00
2023-01-10T00:13:19.519Z,15.01
2023-01-10T00:15:46.300Z,14.99
2023-01-10T00:18:12.998Z,14.98
2023-01-10T00:20:39.783Z,14.98
2023-01-10T00:23:06.874Z,14.98
2023-01-10T00:25:34.349Z,14.97
2023-01-10T00:28:06.718Z,14.97
2023-01-10T00:30:35.289Z,14.97
2023-01-10T00:33:02.736Z,14.98
2023-01-10T00:35:29.313Z,14.99
2023-01-10T00:38:01.404Z,15.00
2023-01-10T00:40:27.979Z,15.00
2023-01-10T00:43:12.760Z,14.99
2023-01-10T00:45:39.354Z,15.00
2023-01-10T00:48:06.198Z,15.02
2023-01-10T00:50:32.757Z,15.01
2023-01-10T00:52:59.304Z,15.01
2023-01-10T00:55:25.848Z,15.01
2023-01-10T00:57:52.447Z,15.01
2023-01-10T01:00:19.143Z,15.01
2023-01-10T01:02:46.104Z,14.99
2023-01-10T01:05:12.704Z,14.99
2023-01-10T01:07:39.258Z,15.01
2023-01-10T01:10:24.778Z,14.99
2023-01-10T01:12:51.310Z,14.98
2023-01-10T01:15:17.886Z,14.99
2023-01-10T01:17:44.455Z,14.98
2023-01-10T01:20:11.636Z,14.99
2023-01-10T01:22:38.210Z,14.98
2023-01-10T01:25:05.247Z,14.98
2023-01-10T01:27:31.988Z,14.98
2023-01-10T01:29:58.563Z,14.98
2023-01-10T01:32:25.179Z,14.98
2023-01-10T01:34:52.016Z,14.98
2023-01-10T01:37:19.676Z,14.98
2023-01-10T01:39:49.321Z,14.98
2023-01-10T01:42:26.307Z,14.98
2023-01-10T01:45:13.966Z,14.98
2023-01-10T01:47:50.024Z,14.98
2023-01-10T01:50:21.209Z,14.98
2023-01-10T01:52:48.286Z,14.99
2023-01-10T01:55:15.501Z,14.98
2023-01-10T01:57:42.077Z,15.00
2023-01-10T02:00:10.603Z,15.00
2023-01-10T02:02:42.644Z,14.99
2023-01-10T02:05:17.064Z,15.01
2023-01-10T02:07:46.364Z,14.99
2023-01-10T02:10:19.830Z,15.01
2023-01-10T02:12:47.849Z,15.01
2023-01-10T02:15:14.955Z,15.00
2023-01-10T02:17:41.617Z,15.01
2023-01-10T02:20:09.598Z,15.01
2023-01-10T02:23:03.470Z,15.00
2023-01-10T02:25:48.801Z,15.00
2023-01-10T02:28:51.815Z,14.99
2023-01-10T02:31:36.494Z,14.98
2023-01-10T02:34:06.729Z,14.98
2023-01-10T02:36:55.047Z,14.98
2023-01-10T02:39:33.361Z,14.97
2023-01-10T02:42:09.600Z,14.97
2023-01-10T02:44:48.952Z,14.98
2023-01-10T02:47:15.567Z,14.98
2023-01-10T02:49:47.314Z,14.97
2023-01-10T02:52:16.855Z,14.96
2023-01-10T02:54:43.703Z,14.95
2023-01-10T02:57:23.111Z,14.96
2023-01-10T03:00:10.985Z,14.96
2023-01-10T03:02:58.340Z,14.94
2023-01-10T03:05:53.076Z,14.94
2023-01-10T03:08:45.132Z,14.95
2023-01-10T03:11:12.068Z,14.95
2023-01-10T03:13:54.408Z,14.96
2023-01-10T03:16:25.258Z,14.97
2023-01-10T03:18:58.434Z,14.98
2023-01-10T03:21:26.459Z,14.98
2023-01-10T03:23:56.216Z,14.98
2023-01-10T03:26:31.210Z,14.99
2023-01-10T03:29:03.349Z,15.00
2023-01-10T03:31:44.361Z,15.00
2023-01-10T03:34:11.076Z,15.01
2023-01-10T03:37:03.821Z,15.01
2023-01-10T03:39:51.451Z,15.01
2023-01-10T03:42:28.109Z,15.01
2023-01-10T03:44:57.595Z,15.00
2023-01-10T03:47:28.047Z,14.98
2023-01-10T03:49:57.279Z,15.00
2023-01-10T03:52:24.736Z,14.99
2023-01-10T03:54:51.612Z,14.98
2023-01-10T03:57:20.665Z,14.98
2023-01-10T03:59:48.915Z,14.98
2023-01-10T04:02:15.488Z,14.97
2023-01-10T04:04:42.051Z,14.96
2023-01-10T04:07:08.675Z,14.95
2023-01-10T04:09:35.283Z,14.97
2023-01-10T04:12:01.856Z,14.95
2023-01-10T04:14:28.905Z,14.96
2023-01-10T04:16:55.579Z,14.95
2023-01-10T04:19:22.136Z,14.94
2023-01-10T04:21:48.718Z,14.93
2023-01-10T04:24:15.279Z,14.93
2023-01-10T04:26:41.816Z,14.94
2023-01-10T04:29:08.393Z,14.94
2023-01-10T04:31:34.956Z,14.95
2023-01-10T04:34:02.727Z,14.94
2023-01-10T04:36:29.374Z,14.94
2023-01-10T04:38:55.947Z,14.95
2023-01-10T04:41:22.509Z,14.96
2023-01-10T04:43:49.769Z,14.95
2023-01-10T04:46:16.981Z,14.98
2023-01-10T04:48:43.553Z,14.97
2023-01-10T04:51:10.088Z,14.97
2023-01-10T04:53:36.720Z,14.97
2023-01-10T04:56:05.068Z,14.98
2023-01-10T04:58:38.496Z,14.98
2023-01-10T05:01:13.209Z,14.96
2023-01-10T05:03:39.970Z,14.97
2023-01-10T05:06:06.760Z,14.96
2023-01-10T05:08:33.799Z,14.98
2023-01-10T05:11:00.346Z,14.96
2023-01-10T05:13:26.947Z,14.95
2023-01-10T05:15:58.108Z,14.98
2023-01-10T05:18:25.744Z,14.97
2023-01-10T05:20:52.409Z,14.98
2023-01-10T05:23:18.956Z,14.96
2023-01-10T05:25:45.640Z,14.98
2023-01-10T05:28:12.176Z,14.94
2023-01-10T05:30:38.758Z,14.97
2023-01-10T05:33:05.403Z,14.95
2023-01-10T05:35:31.994Z,14.95
2023-01-10T05:37:58.591Z,14.93
2023-01-10T05:40:25.169Z,14.94
2023-01-10T05:42:51.735Z,14.94
2023-01-10T05:45:18.357Z,14.94
2023-01-10T05:47:45.429Z,14.94
2023-01-10T05:50:12.389Z,14.94
2023-01-10T05:52:38.968Z,14.95
2023-01-10T05:55:05.811Z,14.96
2023-01-10T05:57:32.551Z,14.95
2023-01-10T05:59:59.208Z,14.97
2023-01-10T06:02:26.642Z,14.98
2023-01-10T06:04:55.420Z,14.98
2023-01-10T06:07:22.480Z,14.98
2023-01-10T06:09:51.117Z,14.98
2023-01-10T06:12:20.926Z,14.98
2023-01-10T06:14:47.515Z,14.96
2023-01-10T06:17:14.121Z,14.98
2023-01-10T06:19:40.698Z,14.98
2023-01-10T06:22:07.277Z,14.96
2023-01-10T06:24:33.981Z,14.97
2023-01-10T06:27:00.570Z,14.97
2023-01-10T06:29:27.153Z,14.98
2023-01-10T06:31:53.826Z,14.97
2023-01-10T06:34:20.381Z,14.96
2023-01-10T06:36:46.985Z,14.95
2023-01-10T06:39:13.588Z,14.97
2023-01-10T06:41:40.158Z,14.96
2023-01-10T06:44:06.794Z,14.94
2023-01-10T06:46:33.372Z,14.95
2023-01-10T06:48:59.944Z,14.96
2023-01-10T06:51:26.509Z,14.93
2023-01-10T06:53:53.071Z,14.93
2023-01-10T06:56:19.671Z,14.94
2023-01-10T06:58:48.755Z,14.93
2023-01-10T07:01:18.298Z,14.91
2023-01-10T07:03:45.112Z,14.93
2023-01-10T07:06:12.065Z,14.94
2023-01-10T07:08:40.783Z,14.94
2023-01-10T07:11:08.455Z,14.95
2023-01-10T07:13:35.336Z,14.95
2023-01-10T07:16:06.186Z,14.96
2023-01-10T07:18:34.668Z,14.98
2023-01-10T07:21:01.259Z,14.98
2023-01-10T07:23:27.856Z,14.99
2023-01-10T07:25:54.606Z,14.99
2023-01-10T07:28:21.189Z,14.98
2023-01-10T07:30:47.747Z,15.01
2023-01-10T07:33:14.333Z,14.99
2023-01-10T07:35:40.905Z,15.00
2023-01-10T07:38:09.040Z,14.98
2023-01-10T07:40:35.757Z,14.98
2023-01-10T07:43:03.215Z,14.98
2023-01-10T07:45:30.982Z,14.98
2023-01-10T07:48:02.111Z,14.98
2023-01-10T07:50:30.157Z,14.97
2023-01-10T07:52:57.247Z,14.96
2023-01-10T07:55:23.824Z,14.95
2023-01-10T07:57:51.548Z,14.97
2023-01-10T08:00:19.327Z,14.97
2023-01-10T08:02:46.828Z,14.94
2023-01-10T08:05:14.447Z,14.95
2023-01-10T08:07:41.007Z,14.95
2023-01-10T08:10:08.256Z,14.94
2023-01-10T08:12:34.883Z,14.95
2023-01-10T08:15:01.443Z,14.94
2023-01-10T08:17:28.004Z,14.95
2023-01-10T08:19:54.559Z,14.94
2023-01-10T08:22:21.107Z,14.94
2023-01-10T08:24:47.765Z,14.93
2023-01-10T08:27:14.371Z,14.94
2023-01-10T08:29:42.103Z,14.95
2023-01-10T08:32:09.139Z,14.96
2023-01-10T08:34:35.697Z,14.95
2023-01-10T08:37:02.469Z,14.97
2023-01-10T08:39:30.658Z,14.98
2023-01-10T08:41:57.584Z,14.99
2023-01-10T08:44:24.149Z,14.99
2023-01-10T08:46:50.785Z,14.99
2023-01-10T08:49:17.696Z,15.00
2023-01-10T08:51:44.750Z,15.01
2023-01-10T08:54:11.418Z,15.02
2023-01-10T08:56:40.121Z,14.99
2023-01-10T08:59:07.532Z,15.02
2023-01-10T09:01:34.502Z,15.01
2023-01-10T09:04:01.149Z,15.01
2023-01-10T09:06:27.753Z,15.02
2023-01-10T09:08:54.317Z,15.01
2023-01-10T09:11:20.865Z,15.01
2023-01-10T09:13:51.302Z,15.01
2023-01-10T09:16:18.426Z,15.01
2023-01-10T09:18:45.113Z,15.01
2023-01-10T09:21:11.694Z,15.00
2023-01-10T09:23:39.940Z,14.99
2023-01-10T09:26:06.803Z,15.00
2023-01-10T09:28:33.412Z,14.99
2023-01-10T09:31:01.155Z,14.98
2023-01-10T09:33:34.943Z,14.98
2023-01-10T09:36:10.244Z,14.98
2023-01-10T09:38:36.902Z,14.99
2023-01-10T09:41:10.793Z,14.99
2023-01-10T09:44:02.672Z,14.98
2023-01-10T09:46:32.265Z,14.99
2023-01-10T09:49:26.516Z,14.99
2023-01-10T09:51:54.498Z,15.01
2023-01-10T09:54:28.376Z,15.02
2023-01-10T09:56:55.707Z,15.02
2023-01-10T09:59:35.631Z,15.03
2023-01-10T10:02:34.857Z,15.04
2023-01-10T10:05:15.618Z,15.05
2023-01-10T10:07:42.446Z,15.05
2023-01-10T10:10:21.076Z,15.05
2023-01-10T10:12:53.286Z,15.07
2023-01-10T10:15:32.056Z,15.06
2023-01-10T10:18:41.351Z,15.05
2023-01-10T10:21:47.882Z,15.05
2023-01-10T10:24:20.060Z,15.06
2023-01-10T10:27:01.749Z,15.05
2023-01-10T10:29:50.689Z,15.05
2023-01-10T10:32:26.356Z,15.06
2023-01-10T10:35:02.748Z,15.05
2023-01-10T10:37:33.938Z,15.05
2023-01-10T10:40:22.234Z,15.05
2023-01-10T10:42:52.479Z,15.05
2023-01-10T10:45:25.392Z,15.06
2023-01-10T10:48:30.253Z,15.04
2023-01-10T10:51:09.098Z,15.03
2023-01-10T10:53:36.176Z,15.05
2023-01-10T10:56:04.865Z,15.04
2023-01-10T10:58:32.195Z,15.04
2023-01-10T11:01:02.102Z,15.03
2023-01-10T11:03:43.243Z,15.04
2023-01-10T11:06:10.278Z,15.05
2023-01-10T11:08:41.854Z,15.05
2023-01-10T11:11:16.786Z,15.05
2023-01-10T11:13:59.502Z,15.03
2023-01-10T11:16:39.588Z,15.04
2023-01-10T11:19:18.081Z,15.05
2023-01-10T11:21:48.824Z,15.07
2023-01-10T11:24:36.340Z,15.08
2023-01-10T11:27:14.443Z,15.08
2023-01-10T11:29:47.196Z,15.08
2023-01-10T11:32:16.793Z,15.09
2023-01-10T11:34:58.365Z,15.07
2023-01-10T11:37:31.491Z,15.10
2023-01-10T11:40:23.838Z,15.07
2023-01-10T11:42:54.616Z,15.08
2023-01-10T11:45:24.160Z,15.08
2023-01-10T11:47:56.971Z,15.07
2023-01-10T11:50:29.351Z,15.08
2023-01-10T11:52:57.001Z,15.07
2023-01-10T11:55:26.089Z,15.06
2023-01-10T11:58:13.346Z,15.05
2023-01-10T12:00:44.853Z,15.05
2023-01-10T12:03:32.731Z,15.03
2023-01-10T12:06:08.370Z,15.02
2023-01-10T12:08:42.335Z,15.02
2023-01-10T12:11:17.631Z,15.02
2023-01-10T12:13:49.872Z,15.02
2023-01-10T12:16:23.183Z,15.02
2023-01-10T12:18:51.577Z,15.02
2023-01-10T12:21:26.795Z,15.02
2023-01-10T12:23:54.315Z,15.03
2023-01-10T12:26:20.923Z,15.03
2023-01-10T12:28:51.293Z,15.03
2023-01-10T12:31:18.698Z,15.06
2023-01-10T12:33:49.199Z,15.07
2023-01-10T12:36:33.941Z,15.08
2023-01-10T12:39:14.355Z,15.08
2023-01-10T12:42:13.778Z,15.10
2023-01-10T12:44:42.020Z,15.11
2023-01-10T12:47:36.523Z,15.12
2023-01-10T12:50:10.915Z,15.12
2023-01-10T12:52:53.855Z,15.11
2023-01-10T12:55:21.795Z,15.11
2023-01-10T12:57:52.106Z,15.12
2023-01-10T13:00:40.523Z,15.12
2023-01-10T13:03:13.355Z,15.11
2023-01-10T13:05:40.494Z,15.10
2023-01-10T13:08:12.912Z,15.10
2023-01-10T13:10:43.971Z,15.11
2023-01-10T13:13:52.269Z,15.09
2023-01-10T13:16:25.071Z,15.10
2023-01-10T13:19:11.439Z,15.11
2023-01-10T13:21:40.033Z,15.11
2023-01-10T13:24:18.295Z,15.10
2023-01-10T13:27:02.497Z,15.10
2023-01-10T13:29:40.627Z,15.08
2023-01-10T13:32:20.275Z,15.10
2023-01-10T13:34:47.018Z,15.11
2023-01-10T13:37:24.884Z,15.10
2023-01-10T13:39:54.487Z,15.10
2023-01-10T13:42:48.456Z,15.12
2023-01-10T13:45:29.093Z,15.14
2023-01-10T13:47:55.713Z,15.14
2023-01-10T13:50:36.581Z,15.13
2023-01-10T13:53:04.211Z,15.14
2023-01-10T13:55:35.074Z,15.13
2023-01-10T13:58:13.548Z,15.13
2023-01-10T14:00:58.744Z,15.12
2023-01-10T14:03:37.483Z,15.13
2023-01-10T14:06:17.045Z,15.13
2023-01-10T14:08:55.590Z,15.12
2023-01-10T14:11:25.211Z,15.13
2023-01-10T14:13:57.958Z,15.11
2023-01-10T14:16:35.871Z,15.10
2023-01-10T14:19:04.850Z,15.10
2023-01-10T14:21:35.744Z,15.10
2023-01-10T14:24:03.013Z,15.12
2023-01-10T14:26:35.675Z,15.13
2023-01-10T14:29:13.714Z,15.13
2023-01-10T14:31:49.611Z,15.15
2023-01-10T14:34:31.563Z,15.15
2023-01-10T14:37:09.120Z,15.15
2023-01-10T14:39:35.871Z,15.14
2023-01-10T14:42:08.007Z,15.13
2023-01-10T14:44:46.133Z,15.11
2023-01-10T14:47:33.645Z,15.10
2023-01-10T14:50:03.958Z,15.11
2023-01-10T14:52:31.064Z,15.10
2023-01-10T14:55:16.769Z,15.07
2023-01-10T14:57:57.390Z,15.06
2023-01-10T15:00:30.017Z,15.06
2023-01-10T15:02:58.965Z,15.05
2023-01-10T15:05:33.292Z,15.05
2023-01-10T15:08:23.365Z,15.03
2023-01-10T15:10:52.512Z,15.06
2023-01-10T15:13:21.422Z,15.06
2023-01-10T15:15:48.981Z,15.07
2023-01-10T15:18:36.788Z,15.08
2023-01-10T15:21:03.773Z,15.07
2023-01-10T15:23:35.717Z,15.08
2023-01-10T15:26:09.529Z,15.07
2023-01-10T15:28:36.359Z,15.08
2023-01-10T15:31:08.078Z,15.07
2023-01-10T15:33:35.636Z,15.07
2023-01-10T15:36:14.398Z,15.06
2023-01-10T15:38:44.373Z,15.06
2023-01-10T15:41:17.485Z,15.06
2023-01-10T15:43:44.267Z,15.05
2023-01-10T15:46:22.038Z,15.07
2023-01-10T15:49:02.875Z,15.06
2023-01-10T15:51:38.050Z,15.07
2023-01-10T15:54:07.512Z,15.04
2023-01-10T15:56:50.076Z,15.05
2023-01-10T15:59:30.209Z,15.02
2023-01-10T16:02:05.975Z,15.04
2023-01-10T16:04:36.301Z,15.03
2023-01-10T16:07:22.954Z,15.02
2023-01-10T16:09:55.471Z,15.01
2023-01-10T16:12:46.820Z,15.02
2023-01-10T16:15:19.254Z,15.02
2023-01-10T16:17:46.825Z,15.01
2023-01-10T16:20:31.189Z,15.02
2023-01-10T16:22:58.113Z,15.02
2023-01-10T16:25:32.141Z,15.02
2023-01-10T16:27:59.257Z,15.03
2023-01-10T16:30:29.621Z,15.04
2023-01-10T16:32:57.402Z,15.05
2023-01-10T16:35:24.826Z,15.06
2023-01-10T16:37:56.588Z,15.05
2023-01-10T16:40:27.554Z,15.06
2023-01-10T16:43:13.603Z,15.06
2023-01-10T16:45:40.515Z,15.07
2023-01-10T16:48:07.272Z,15.06
2023-01-10T16:50:33.905Z,15.07
2023-01-10T16:53:00.551Z,15.06
2023-01-10T16:55:35.909Z,15.06
2023-01-10T16:58:02.492Z,15.06
2023-01-10T17:00:29.071Z,15.05
2023-01-10T17:02:56.162Z,15.06
2023-01-10T17:05:22.759Z,15.05
2023-01-10T17:07:49.311Z,15.03
2023-01-10T17:10:16.226Z,15.05
2023-01-10T17:12:43.016Z,15.04
2023-01-10T17:15:14.178Z,15.04
2023-01-10T17:17:45.120Z,15.03
2023-01-10T17:20:14.263Z,15.03
2023-01-10T17:22:41.962Z,15.02
2023-01-10T17:25:13.680Z,15.03
2023-01-10T17:27:40.565Z,15.03
2023-01-10T17:30:08.083Z,15.02
2023-01-10T17:32:34.853Z,15.02
2023-01-10T17:35:01.495Z,15.02
2023-01-10T17:37:28.553Z,15.01
2023-01-10T17:39:55.203Z,15.01
2023-01-10T17:42:22.791Z,15.00
2023-01-10T17:44:49.636Z,15.00
2023-01-10T17:47:16.439Z,15.01
2023-01-10T17:49:43.000Z,15.02
2023-01-10T17:52:10.033Z,15.02
2023-01-10T17:54:36.596Z,15.02
2023-01-10T17:57:04.402Z,15.02
2023-01-10T17:59:31.164Z,15.04
2023-01-10T18:01:58.268Z,15.06
2023-01-10T18:04:25.066Z,15.06
2023-01-10T18:06:52.287Z,15.07
2023-01-10T18:09:19.220Z,15.06
2023-01-10T18:11:45.762Z,15.07
2023-01-10T18:14:30.810Z,15.07
2023-01-10T18:16:57.402Z,15.07
2023-01-10T18:19:24.007Z,15.07
2023-01-10T18:21:50.591Z,15.06
2023-01-10T18:24:17.136Z,15.07
2023-01-10T18:26:43.672Z,15.06
2023-01-10T18:29:10.223Z,15.06
2023-01-10T18:31:36.792Z,15.05
2023-01-10T18:34:03.367Z,15.05
2023-01-10T18:36:30.164Z,15.05
2023-01-10T18:38:57.261Z,15.04
2023-01-10T18:41:23.871Z,15.05
2023-01-10T18:43:50.463Z,15.03
2023-01-10T18:46:22.147Z,15.03
2023-01-10T18:48:51.883Z,15.02
2023-01-10T18:51:19.229Z,15.01
2023-01-10T18:53:47.469Z,15.02
2023-01-10T18:56:14.712Z,15.02
2023-01-10T18:58:42.099Z,15.01
2023-01-10T19:01:10.891Z,15.01
2023-01-10T19:03:38.152Z,15.02
2023-01-10T19:06:06.377Z,15.02
2023-01-10T19:08:33.201Z,15.02
2023-01-10T19:11:12.820Z,15.02
2023-01-10T19:13:40.907Z,15.01
2023-01-10T19:16:12.187Z,15.03
2023-01-10T19:18:39.139Z,15.05
2023-01-10T19:21:06.189Z,15.03
2023-01-10T19:23:33.243Z,15.04
2023-01-10T19:25:59.983Z,15.04
2023-01-10T19:28:29.865Z,15.04
2023-01-10T19:31:04.113Z,15.06
2023-01-10T19:33:32.923Z,15.03
2023-01-10T19:35:59.918Z,15.03
2023-01-10T19:38:26.490Z,15.04
2023-01-10T19:40:53.375Z,15.02
2023-01-10T19:43:22.080Z,15.03
2023-01-10T19:45:48.688Z,15.03
2023-01-10T19:48:15.419Z,15.04
2023-01-10T19:50:42.160Z,15.03
2023-01-10T19:53:08.758Z,15.04
2023-01-10T19:55:35.590Z,15.03
2023-01-10T19:58:02.408Z,15.03
2023-01-10T20:00:29.330Z,15.04
2023-01-10T20:02:57.555Z,15.05
2023-01-10T20:05:24.980Z,15.05
2023-01-10T20:07:52.443Z,15.03
2023-01-10T20:10:19.439Z,15.02
2023-01-10T20:12:46.029Z,15.02
2023-01-10T20:15:12.636Z,15.02
2023-01-10T20:17:40.545Z,15.02
2023-01-10T20:20:07.665Z,15.01
2023-01-10T20:22:34.274Z,15.01
2023-01-10T20:25:00.993Z,15.01
2023-01-10T20:27:28.553Z,15.02
2023-01-10T20:29:55.271Z,15.02
2023-01-10T20:32:22.241Z,15.02
2023-01-10T20:34:49.787Z,15.03
2023-01-10T20:37:16.658Z,15.04
2023-01-10T20:39:43.235Z,15.04
2023-01-10T20:42:09.942Z,15.03
2023-01-10T20:44:36.635Z,15.05
2023-01-10T20:47:03.253Z,15.05
2023-01-10T20:49:29.830Z,15.05
2023-01-10T20:51:56.417Z,15.04
2023-01-10T20:54:23.254Z,15.05
2023-01-10T20:56:49.873Z,15.04
2023-01-10T20:59:16.451Z,15.03
2023-01-10T21:01:43.115Z,15.02
2023-01-10T21:04:09.716Z,15.02
2023-01-10T21:06:36.860Z,15.03
2023-01-10T21:09:04.533Z,15.03
2023-01-10T21:11:31.158Z,15.02
2023-01-10T21:13:57.867Z,15.01
2023-01-10T21:16:25.523Z,15.02
2023-01-10T21:18:52.332Z,15.01
2023-01-10T21:21:20.630Z,15.01
2023-01-10T21:23:47.197Z,14.99
2023-01-10T21:26:14.983Z,14.99
2023-01-10T21:28:45.907Z,14.99
2023-01-10T21:31:16.584Z,14.98
2023-01-10T21:33:43.382Z,14.98
2023-01-10T21:36:10.491Z,14.98
2023-01-10T21:38:37.213Z,14.99
2023-01-10T21:41:09.643Z,14.99
2023-01-10T21:43:36.532Z,14.98
2023-01-10T21:46:03.295Z,14.99
2023-01-10T21:48:30.072Z,14.99
2023-01-10T21:50:57.758Z,15.01
2023-01-10T21:53:24.449Z,15.02
2023-01-10T21:55:50.992Z,15.01
2023-01-10T21:58:17.581Z,15.01
2023-01-10T22:00:44.279Z,15.04
2023-01-10T22:03:10.946Z,15.04
2023-01-10T22:05:37.532Z,15.03
2023-01-10T22:08:04.273Z,15.04
2023-01-10T22:10:30.840Z,15.05
2023-01-10T22:12:57.420Z,15.04
2023-01-10T22:15:23.964Z,15.03
2023-01-10T22:17:50.545Z,15.04
2023-01-10T22:20:17.254Z,15.02
2023-01-10T22:22:43.838Z,15.03
2023-01-10T22:25:10.401Z,15.02
2023-01-10T22:27:36.947Z,15.02
2023-01-10T22:30:04.457Z,15.02
2023-01-10T22:32:31.026Z,15.01
2023-01-10T22:34:57.650Z,15.01
2023-01-10T22:37:24.192Z,14.99
2023-01-10T22:39:50.754Z,15.00
2023-01-10T22:42:17.311Z,15.00
2023-01-10T22:44:43.886Z,14.98
2023-01-10T22:47:12.182Z,14.97
2023-01-10T22:49:38.801Z,14.98
2023-01-10T22:52:08.369Z,14.97
2023-01-10T22:54:35.176Z,14.97
2023-01-10T22:57:01.778Z,14.97
2023-01-10T22:59:28.401Z,14.95
2023-01-10T23:01:54.994Z,14.96
2023-01-10T23:04:22.184Z,14.95
2023-01-10T23:06:50.177Z,14.97
2023-01-10T23:09:16.907Z,14.95
2023-01-10T23:11:43.478Z,14.98
2023-01-10T23:14:10.024Z,14.97
2023-01-10T23:16:36.657Z,14.98
2023-01-10T23:19:03.519Z,14.98
2023-01-10T23:21:30.060Z,14.99
2023-01-10T23:23:56.916Z,15.00
2023-01-10T23:26:23.538Z,15.00
2023-01-10T23:28:51.622Z,15.00
2023-01-10T23:31:22.786Z,15.01
2023-01-10T23:33:50.320Z,14.99
2023-01-10T23:36:18.070Z,14.98
2023-01-10T23:38:44.672Z,14.99
2023-01-10T23:41:11.870Z,15.01
2023-01-10T23:43:38.469Z,15.01
2023-01-10T23:46:06.171Z,15.00
2023-01-10T23:48:33.062Z,15.01
2023-01-10T23:50:59.788Z,15.02
2023-01-10T23:53:26.426Z,15.01
2023-01-10T23:55:53.410Z,15.00
2023-01-10T23:58:20.528Z,14.99
